createdAt,value
2023-01-17T00:00:17.376Z,98075.88
2023-01-17T00:03:59.418Z,98063.66
2023-01-17T00:07:41.553Z,98062.00
2023-01-17T00:11:03.143Z,98050.44
2023-01-17T00:14:24.970Z,98057.72
2023-01-17T00:17:46.954Z,98044.31
2023-01-17T00:21:25.246Z,98043.50
2023-01-17T00:25:05.526Z,98043.50
2023-01-17T00:28:26.937Z,98042.69
2023-01-17T00:31:47.440Z,98040.22
2023-01-17T00:35:08.489Z,98036.75
2023-01-17T00:38:30.588Z,98036.94
2023-01-17T00:41:52.323Z,98032.63
2023-01-17T00:45:31.246Z,98032.78
2023-01-17T00:49:10.639Z,98032.78
2023-01-17T00:52:49.694Z,98037.59
2023-01-17T00:56:28.499Z,98019.44
2023-01-17T01:00:08.741Z,98019.94
2023-01-17T01:03:47.701Z,98012.50
2023-01-17T01:07:26.598Z,98002.28
2023-01-17T01:11:07.212Z,98000.97
2023-01-17T01:14:46.186Z,97997.81
2023-01-17T01:18:27.844Z,97997.50
2023-01-17T01:22:06.751Z,97996.19
2023-01-17T01:25:45.538Z,97988.78
2023-01-17T01:29:24.362Z,97987.75
2023-01-17T01:33:03.656Z,97992.56
2023-01-17T01:36:26.435Z,97966.66
2023-01-17T01:39:48.303Z,97982.69
2023-01-17T01:43:13.367Z,97980.53
2023-01-17T01:46:39.579Z,97983.50
2023-01-17T01:50:04.159Z,97972.59
2023-01-17T01:53:27.393Z,97969.31
2023-01-17T01:56:52.465Z,97963.53
2023-01-17T02:00:18.576Z,97963.34
2023-01-17T02:03:42.013Z,97963.69
2023-01-17T02:07:08.284Z,97960.38
2023-01-17T02:10:32.931Z,97953.63
2023-01-17T02:13:54.568Z,97950.50
2023-01-17T02:17:26.585Z,97942.09
2023-01-17T02:21:05.484Z,97935.97
2023-01-17T02:25:04.705Z,97937.16
2023-01-17T02:28:47.081Z,97948.50
2023-01-17T02:32:15.554Z,97935.66
2023-01-17T02:35:48.610Z,97941.91
2023-01-17T02:39:15.398Z,97935.97
2023-01-17T02:42:40.878Z,97927.41
2023-01-17T02:46:02.297Z,97929.38
2023-01-17T02:49:29.481Z,97931.19
2023-01-17T02:53:08.814Z,97926.09
2023-01-17T02:56:42.934Z,97926.25
2023-01-17T03:00:14.014Z,97929.06
2023-01-17T03:03:40.298Z,97926.75
2023-01-17T03:07:09.329Z,97940.06
2023-01-17T03:10:32.653Z,97936.91
2023-01-17T03:13:56.755Z,97934.28
2023-01-17T03:17:18.670Z,97930.00
2023-01-17T03:20:40.424Z,97919.78
2023-01-17T03:24:03.575Z,97917.34
2023-01-17T03:27:25.097Z,97927.03
2023-01-17T03:30:46.742Z,97930.31
2023-01-17T03:34:08.422Z,97926.03
2023-01-17T03:37:29.955Z,97925.38
2023-01-17T03:40:53.238Z,97922.75
2023-01-17T03:44:14.959Z,97924.41
2023-01-17T03:47:36.915Z,97926.38
2023-01-17T03:50:58.675Z,97920.13
2023-01-17T03:54:20.100Z,97920.94
2023-01-17T03:57:43.099Z,97915.50
2023-01-17T04:01:04.722Z,97919.63
2023-01-17T04:04:26.425Z,97918.47
2023-01-17T04:07:48.155Z,97916.50
2023-01-17T04:11:09.986Z,97921.28
2023-01-17T04:14:33.037Z,97918.50
2023-01-17T04:17:54.863Z,97916.53
2023-01-17T04:21:16.202Z,97917.19
2023-01-17T04:24:37.836Z,97917.69
2023-01-17T04:28:01.304Z,97918.19
2023-01-17T04:31:24.197Z,97911.59
2023-01-17T04:34:45.920Z,97908.63
2023-01-17T04:38:07.626Z,97908.97
2023-01-17T04:41:29.446Z,97905.00
2023-01-17T04:44:51.191Z,97904.53
2023-01-17T04:48:14.459Z,97912.94
2023-01-17T04:51:35.814Z,97911.63
2023-01-17T04:54:57.629Z,97911.94
2023-01-17T04:58:19.370Z,97913.25
2023-01-17T05:01:41.025Z,97917.19
2023-01-17T05:05:04.162Z,97923.78
2023-01-17T05:08:25.889Z,97928.72
2023-01-17T05:11:47.538Z,97930.88
2023-01-17T05:15:10.333Z,97932.19
2023-01-17T05:18:31.966Z,97940.78
2023-01-17T05:21:54.775Z,97936.00
2023-01-17T05:25:16.610Z,97937.31
2023-01-17T05:28:38.010Z,97947.53
2023-01-17T05:31:59.961Z,97950.31
2023-01-17T05:35:23.687Z,97958.09
2023-01-17T05:38:46.216Z,97961.38
2023-01-17T05:42:07.704Z,97967.97
2023-01-17T05:45:31.074Z,97971.59
2023-01-17T05:48:52.937Z,97967.31
2023-01-17T05:52:14.969Z,97963.66
2023-01-17T05:55:39.007Z,97975.06
2023-01-17T05:59:00.839Z,97966.31
2023-01-17T06:02:22.529Z,97976.53
2023-01-17T06:05:44.959Z,97983.47
2023-01-17T06:09:06.448Z,97987.75
2023-01-17T06:12:29.615Z,97988.59
2023-01-17T06:15:51.393Z,97984.13
2023-01-17T06:19:12.985Z,97998.97
2023-01-17T06:22:34.840Z,97999.97
2023-01-17T06:25:56.666Z,98004.25
2023-01-17T06:29:19.928Z,97998.81
2023-01-17T06:32:41.607Z,98004.09
2023-01-17T06:36:03.303Z,98000.28
2023-01-17T06:39:25.381Z,98003.59
2023-01-17T06:42:47.370Z,97995.50
2023-01-17T06:46:10.711Z,98005.91
2023-01-17T06:49:32.560Z,98006.56
2023-01-17T06:52:59.540Z,98010.84
2023-01-17T06:56:21.646Z,98023.06
2023-01-17T06:59:43.230Z,98019.44
2023-01-17T07:03:06.687Z,98021.06
2023-01-17T07:06:28.917Z,98032.78
2023-01-17T07:09:50.670Z,98036.25
2023-01-17T07:13:12.457Z,98041.88
2023-01-17T07:16:35.331Z,98055.72
2023-01-17T07:19:58.613Z,98066.28
2023-01-17T07:23:22.466Z,98061.00
2023-01-17T07:26:44.174Z,98066.28
2023-01-17T07:30:06.249Z,98071.56
2023-01-17T07:33:27.855Z,98068.59
2023-01-17T07:36:50.995Z,98080.47
2023-01-17T07:40:13.425Z,98081.13
2023-01-17T07:43:36.558Z,98074.88
2023-01-17T07:46:59.791Z,98081.97
2023-01-17T07:50:21.186Z,98082.78
2023-01-17T07:53:44.286Z,98088.38
2023-01-17T07:57:05.596Z,98094.34
2023-01-17T08:00:27.735Z,98086.28
2023-01-17T08:03:54.838Z,98101.94
2023-01-17T08:07:16.787Z,98102.59
2023-01-17T08:10:40.085Z,98100.47
2023-01-17T08:14:01.820Z,98117.16
2023-01-17T08:17:23.713Z,98109.38
2023-01-17T08:20:45.575Z,98118.97
2023-01-17T08:24:07.959Z,98119.94
2023-01-17T08:27:31.002Z,98123.41
2023-01-17T08:30:52.437Z,98118.97
2023-01-17T08:34:15.197Z,98120.78
2023-01-17T08:37:37.769Z,98126.72
2023-01-17T08:41:01.570Z,98129.22
2023-01-17T08:44:24.741Z,98125.72
2023-01-17T08:47:46.446Z,98138.94
2023-01-17T08:51:08.521Z,98146.06
2023-01-17T08:54:30.235Z,98145.38
2023-01-17T08:57:52.382Z,98150.81
2023-01-17T09:01:16.143Z,98151.66
2023-01-17T09:04:37.498Z,98161.03
2023-01-17T09:08:00.547Z,98157.25
2023-01-17T09:11:22.015Z,98155.59
2023-01-17T09:14:43.732Z,98167.00
2023-01-17T09:18:07.048Z,98165.00
2023-01-17T09:21:28.847Z,98166.84
2023-01-17T09:24:50.614Z,98171.13
2023-01-17T09:28:12.327Z,98177.22
2023-01-17T09:31:34.098Z,98181.22
2023-01-17T09:34:57.887Z,98188.84
2023-01-17T09:38:21.692Z,98193.94
2023-01-17T09:41:49.866Z,98192.13
2023-01-17T09:45:17.548Z,98199.75
2023-01-17T09:48:40.367Z,98209.00
2023-01-17T09:52:03.500Z,98206.34
2023-01-17T09:55:25.351Z,98210.63
2023-01-17T09:58:54.174Z,98224.66
2023-01-17T10:02:34.486Z,98223.84
2023-01-17T10:06:04.395Z,98236.41
2023-01-17T10:09:45.775Z,98240.00
2023-01-17T10:13:28.041Z,98243.59
2023-01-17T10:16:56.639Z,98254.84
2023-01-17T10:20:33.997Z,98250.09
2023-01-17T10:24:21.858Z,98266.75
2023-01-17T10:27:51.190Z,98269.03
2023-01-17T10:31:20.064Z,98264.59
2023-01-17T10:34:46.389Z,98270.69
2023-01-17T10:38:14.021Z,98283.41
2023-01-17T10:41:43.643Z,98282.91
2023-01-17T10:45:16.561Z,98291.81
2023-01-17T10:48:40.712Z,98297.75
2023-01-17T10:52:16.747Z,98304.69
2023-01-17T10:55:43.945Z,98302.38
2023-01-17T10:59:18.866Z,98310.09
2023-01-17T11:02:47.562Z,98307.66
2023-01-17T11:06:17.686Z,98309.94
2023-01-17T11:09:41.345Z,98313.41
2023-01-17T11:13:03.410Z,98309.78
2023-01-17T11:16:28.672Z,98313.56
2023-01-17T11:19:52.405Z,98316.03
2023-01-17T11:23:16.962Z,98324.13
2023-01-17T11:26:47.441Z,98325.78
2023-01-17T11:30:18.072Z,98332.22
2023-01-17T11:33:53.740Z,98329.28
2023-01-17T11:37:22.829Z,98327.63
2023-01-17T11:40:46.002Z,98324.50
2023-01-17T11:44:22.747Z,98336.38
2023-01-17T11:47:44.502Z,98344.31
2023-01-17T11:51:25.293Z,98351.09
2023-01-17T11:54:49.524Z,98355.88
2023-01-17T11:58:15.485Z,98359.84
2023-01-17T12:01:42.347Z,98355.56
2023-01-17T12:05:18.385Z,98360.34
2023-01-17T12:08:57.183Z,98357.72
2023-01-17T12:12:45.070Z,98368.78
2023-01-17T12:16:32.949Z,98368.94
2023-01-17T12:20:01.403Z,98375.38
2023-01-17T12:23:38.695Z,98379.84
2023-01-17T12:27:10.107Z,98402.41
2023-01-17T12:30:43.966Z,98416.06
2023-01-17T12:34:20.939Z,98437.97
2023-01-17T12:37:45.046Z,98438.59
2023-01-17T12:41:12.673Z,98443.16
2023-01-17T12:44:45.885Z,98448.22
2023-01-17T12:48:13.107Z,98457.97
2023-01-17T12:51:38.732Z,98463.84
2023-01-17T12:55:07.414Z,98457.06
2023-01-17T12:58:36.775Z,98474.03
2023-01-17T13:02:00.703Z,98471.00
2023-01-17T13:05:29.162Z,98473.28
2023-01-17T13:08:54.318Z,98472.31
2023-01-17T13:12:19.072Z,98481.50
2023-01-17T13:15:41.251Z,98483.47
2023-01-17T13:19:10.055Z,98492.38
2023-01-17T13:22:33.847Z,98503.47
2023-01-17T13:25:57.025Z,98500.81
2023-01-17T13:29:32.334Z,98509.06
2023-01-17T13:33:22.762Z,98504.59
2023-01-17T13:37:00.130Z,98513.19
2023-01-17T13:40:37.466Z,98522.91
2023-01-17T13:44:19.275Z,98519.28
2023-01-17T13:47:42.536Z,98524.09
2023-01-17T13:51:05.087Z,98535.03
2023-01-17T13:54:32.847Z,98537.22
2023-01-17T13:57:55.626Z,98540.41
2023-01-17T14:01:53.142Z,98544.53
2023-01-17T14:05:17.541Z,98555.47
2023-01-17T14:08:45.936Z,98555.25
2023-01-17T14:12:26.400Z,98560.22
2023-01-17T14:15:52.160Z,98572.44
2023-01-17T14:19:27.144Z,98579.38
2023-01-17T14:22:52.013Z,98574.13
2023-01-17T14:26:36.619Z,98584.81
2023-01-17T14:29:59.491Z,98589.28
2023-01-17T14:33:28.466Z,98606.78
2023-01-17T14:36:50.288Z,98611.88
2023-01-17T14:40:20.439Z,98618.31
2023-01-17T14:43:44.147Z,98623.59
2023-01-17T14:47:06.183Z,98635.81
2023-01-17T14:50:30.806Z,98637.47
2023-01-17T14:53:57.159Z,98646.06
2023-01-17T14:57:28.647Z,98655.66
2023-01-17T15:00:53.165Z,98655.34
2023-01-17T15:04:28.921Z,98652.69
2023-01-17T15:07:53.899Z,98657.97
2023-01-17T15:11:20.207Z,98657.97
2023-01-17T15:14:45.846Z,98663.69
2023-01-17T15:18:20.439Z,98667.19
2023-01-17T15:21:44.106Z,98665.53
2023-01-17T15:25:11.041Z,98676.38
2023-01-17T15:28:34.534Z,98688.06
2023-01-17T15:31:58.753Z,98693.50
2023-01-17T15:35:21.551Z,98691.16
2023-01-17T15:39:00.231Z,98700.31
2023-01-17T15:42:25.396Z,98703.25
2023-01-17T15:45:56.096Z,98697.59
2023-01-17T15:49:20.515Z,98706.09
2023-01-17T15:52:49.945Z,98698.78
2023-01-17T15:56:23.321Z,98703.78
2023-01-17T15:59:48.889Z,98699.94
2023-01-17T16:03:23.547Z,98706.75
2023-01-17T16:06:46.830Z,98713.59
2023-01-17T16:10:14.739Z,98720.56
2023-01-17T16:13:38.576Z,98723.06
2023-01-17T16:17:03.687Z,98723.81
2023-01-17T16:20:30.886Z,98734.78
2023-01-17T16:23:53.165Z,98738.25
2023-01-17T16:27:15.118Z,98735.19
2023-01-17T16:30:37.846Z,98740.22
2023-01-17T16:34:00.761Z,98733.69
2023-01-17T16:37:22.976Z,98736.31
2023-01-17T16:40:46.180Z,98739.78
2023-01-17T16:44:07.958Z,98732.72
2023-01-17T16:47:29.685Z,98731.63
2023-01-17T16:50:53.234Z,98740.31
2023-01-17T16:54:14.913Z,98736.59
2023-01-17T16:57:37.554Z,98738.78
2023-01-17T17:01:00.279Z,98744.59
2023-01-17T17:04:22.508Z,98743.88
2023-01-17T17:07:50.708Z,98751.06
2023-01-17T17:11:16.503Z,98751.75
2023-01-17T17:14:37.938Z,98757.38
2023-01-17T17:18:00.401Z,98759.16
2023-01-17T17:21:22.326Z,98760.50
2023-01-17T17:24:45.543Z,98758.41
2023-01-17T17:28:07.846Z,98761.31
2023-01-17T17:31:29.828Z,98776.50
2023-01-17T17:34:51.663Z,98780.25
2023-01-17T17:38:12.903Z,98785.19
2023-01-17T17:41:39.199Z,98786.25
2023-01-17T17:45:01.094Z,98789.03
2023-01-17T17:48:22.915Z,98791.78
2023-01-17T17:51:45.446Z,98802.56
2023-01-17T17:55:08.030Z,98797.44
2023-01-17T17:58:31.685Z,98798.41
2023-01-17T18:01:53.648Z,98802.00
2023-01-17T18:05:15.138Z,98807.25
2023-01-17T18:08:37.588Z,98810.84
2023-01-17T18:11:59.465Z,98803.91
2023-01-17T18:15:24.159Z,98800.59
2023-01-17T18:18:47.803Z,98810.13
2023-01-17T18:22:09.407Z,98819.09
2023-01-17T18:25:31.155Z,98824.50
2023-01-17T18:28:53.992Z,98816.84
2023-01-17T18:32:17.093Z,98826.91
2023-01-17T18:35:38.363Z,98825.66
2023-01-17T18:39:00.046Z,98820.75
2023-01-17T18:42:23.425Z,98823.91
2023-01-17T18:45:44.909Z,98820.38
2023-01-17T18:49:08.507Z,98825.38
2023-01-17T18:52:30.350Z,98823.50
2023-01-17T18:55:57.199Z,98831.03
2023-01-17T18:59:19.693Z,98850.78
2023-01-17T19:02:41.317Z,98851.13
2023-01-17T19:06:05.803Z,98848.03
2023-01-17T19:09:27.949Z,98844.81
2023-01-17T19:12:50.126Z,98847.44
2023-01-17T19:16:15.368Z,98859.59
2023-01-17T19:19:38.125Z,98864.84
2023-01-17T19:23:01.194Z,98863.91
2023-01-17T19:26:23.944Z,98862.38
2023-01-17T19:29:45.565Z,98870.34
2023-01-17T19:33:07.592Z,98876.69
2023-01-17T19:36:33.562Z,98872.75
2023-01-17T19:39:56.468Z,98879.31
2023-01-17T19:43:18.322Z,98884.22
2023-01-17T19:46:41.096Z,98894.25
2023-01-17T19:50:02.651Z,98887.66
2023-01-17T19:53:25.052Z,98892.31
2023-01-17T19:56:48.207Z,98897.56
2023-01-17T20:00:13.527Z,98904.84
2023-01-17T20:03:34.862Z,98897.31
2023-01-17T20:06:56.095Z,98891.13
2023-01-17T20:10:19.037Z,98892.31
2023-01-17T20:13:42.103Z,98895.13
2023-01-17T20:17:04.612Z,98887.72
2023-01-17T20:20:26.234Z,98896.28
2023-01-17T20:23:48.882Z,98897.59
2023-01-17T20:27:10.788Z,98905.56
2023-01-17T20:30:34.607Z,98898.66
2023-01-17T20:33:57.250Z,98908.03
2023-01-17T20:37:18.825Z,98905.56
2023-01-17T20:40:41.061Z,98902.06
2023-01-17T20:44:04.565Z,98908.16
2023-01-17T20:47:29.654Z,98907.78
2023-01-17T20:50:51.173Z,98901.19
2023-01-17T20:54:14.967Z,98904.50
2023-01-17T20:57:36.682Z,98921.16
2023-01-17T21:00:59.673Z,98926.00
2023-01-17T21:04:25.914Z,98933.88
2023-01-17T21:07:47.594Z,98935.75
2023-01-17T21:11:12.410Z,98938.50
2023-01-17T21:14:34.235Z,98944.06
2023-01-17T21:17:55.755Z,98943.34
2023-01-17T21:21:21.997Z,98948.66
2023-01-17T21:24:43.883Z,98957.16
2023-01-17T21:28:06.836Z,98976.44
2023-01-17T21:31:30.574Z,98985.69
2023-01-17T21:34:52.984Z,98994.56
2023-01-17T21:38:16.417Z,98993.84
2023-01-17T21:41:39.931Z,98998.06
2023-01-17T21:45:01.240Z,99001.50
2023-01-17T21:48:23.477Z,99022.78
2023-01-17T21:52:02.819Z,99029.78
2023-01-17T21:55:42.854Z,99019.66
2023-01-17T21:59:04.502Z,99025.84
2023-01-17T22:02:26.483Z,99023.41
2023-01-17T22:05:48.081Z,99027.09
2023-01-17T22:09:09.730Z,99031.59
2023-01-17T22:12:33.721Z,99033.34
2023-01-17T22:15:59.529Z,99032.53
2023-01-17T22:19:21.180Z,99036.81
2023-01-17T22:22:42.993Z,99025.41
2023-01-17T22:26:05.763Z,99027.59
2023-01-17T22:29:29.620Z,99032.97
2023-01-17T22:32:51.265Z,99043.66
2023-01-17T22:36:14.731Z,99032.53
2023-01-17T22:39:38.174Z,99033.47
2023-01-17T22:43:00.260Z,99032.84
2023-01-17T22:46:24.956Z,99034.84
2023-01-17T22:49:46.631Z,99043.84
2023-01-17T22:53:08.559Z,99045.94
2023-01-17T22:56:32.429Z,99052.94
2023-01-17T22:59:54.127Z,99044.47
2023-01-17T23:03:17.409Z,99056.00
2023-01-17T23:06:41.021Z,99050.03
2023-01-17T23:10:02.663Z,99050.97
2023-01-17T23:13:24.413Z,99051.06
2023-01-17T23:17:06.827Z,99044.06
2023-01-17T23:20:29.680Z,99040.06
2023-01-17T23:23:51.457Z,99034.41
2023-01-17T23:27:32.868Z,99041.63
2023-01-17T23:30:54.331Z,99031.38
2023-01-17T23:34:16.045Z,99034.94
2023-01-17T23:37:56.576Z,99026.34
2023-01-17T23:41:35.509Z,99018.50
2023-01-17T23:44:57.350Z,99024.78
2023-01-17T23:48:19.727Z,99024.03
2023-01-17T23:51:41.179Z,99021.44
2023-01-17T23:55:04.565Z,99014.41
2023-01-17T23:58:28.662Z,99003.31
